Time;durP1;ratioP1;P1;durP2;ratioP2;P2;SDS_P1;SDS_P2;PMS_P1;PMS_P2;Temp;Humidity;BMP_temperature;BMP_pressure;BME280_temperature;BME280_humidity;BME280_pressure;Samples;Min_cycle;Max_cycle;Signal;HPM_P1;HPM_P2
2022/02/02 00:01:03;;;;;;;19.73;4.13;;;9.20;99.90;;;;;;5076008;28;20380;-56
2022/02/02 00:03:31;;;;;;;19.63;3.00;;;9.20;99.90;;;;;;5057650;28;20202;-56
2022/02/02 00:09:09;;;;;;;21.17;4.27;;;9.20;99.90;;;;;;4997147;28;20275;-56
2022/02/02 00:17:06;;;;;;;17.43;3.93;;;9.20;99.90;;;;;;5002202;28;20532;-57
2022/02/02 00:22:07;;;;;;;20.97;4.00;;;9.20;99.90;;;;;;5000285;28;20358;-57
2022/02/02 00:27:15;;;;;;;28.67;4.23;;;9.20;99.90;;;;;;5001364;28;20202;-57
2022/02/02 00:29:48;;;;;;;19.20;3.43;;;9.30;99.90;;;;;;4999556;28;20251;-59
2022/02/02 00:34:43;;;;;;;15.30;3.40;;;9.30;99.90;;;;;;4995546;28;20335;-58
2022/02/02 00:37:11;;;;;;;23.07;4.33;;;9.30;99.90;;;;;;5001535;28;20259;-57
2022/02/02 00:39:38;;;;;;;26.73;4.53;;;9.30;99.90;;;;;;5030165;28;20262;-58
2022/02/02 00:42:05;;;;;;;22.40;4.33;;;9.30;99.90;;;;;;5077756;28;20723;-56
2022/02/02 00:44:33;;;;;;;17.13;4.67;;;9.30;99.90;;;;;;5082826;28;20230;-56
2022/02/02 00:47:00;;;;;;;14.07;3.00;;;9.30;99.90;;;;;;5073438;28;20242;-56
2022/02/02 00:49:27;;;;;;;21.77;3.93;;;9.30;99.90;;;;;;5080482;28;20234;-58
2022/02/02 00:51:58;;;;;;;16.40;3.80;;;9.30;99.90;;;;;;5064292;28;20217;-57
2022/02/02 00:54:29;;;;;;;16.33;3.20;;;9.30;99.90;;;;;;5080929;28;20536;-58
2022/02/02 00:56:56;;;;;;;19.47;3.60;;;9.30;99.90;;;;;;5081925;28;20259;-56
2022/02/02 00:59:24;;;;;;;23.90;4.27;;;9.20;99.90;;;;;;5079646;28;20679;-56
2022/02/02 01:01:52;;;;;;;24.70;3.50;;;9.20;99.90;;;;;;5080500;28;20307;-59
2022/02/02 01:04:20;;;;;;;16.57;3.77;;;9.20;99.90;;;;;;5078396;28;20234;-58
2022/02/02 01:07:15;;;;;;;18.33;3.30;;;9.30;99.90;;;;;;5060229;28;20318;-58
2022/02/02 01:17:59;;;;;;;25.27;4.13;;;9.20;99.90;;;;;;5083037;28;20309;-57
2022/02/02 01:28:28;;;;;;;20.20;3.83;;;9.10;99.90;;;;;;5081054;28;20202;-57
2022/02/02 01:30:55;;;;;;;22.30;3.60;;;9.00;99.90;;;;;;5081856;28;20756;-57
2022/02/02 01:33:22;;;;;;;15.30;3.60;;;9.00;99.90;;;;;;5066832;28;20337;-58
2022/02/02 01:35:50;;;;;;;18.90;3.23;;;9.00;99.90;;;;;;5079833;28;20703;-57
2022/02/02 01:38:17;;;;;;;19.40;3.73;;;9.00;99.90;;;;;;5081730;28;20348;-57
2022/02/02 01:40:53;;;;;;;19.17;3.97;;;9.00;99.90;;;;;;5078067;28;20607;-58
2022/02/02 01:43:25;;;;;;;23.73;4.13;;;9.00;99.90;;;;;;5061426;28;20295;-58
2022/02/02 01:46:03;;;;;;;27.90;4.80;;;8.90;99.90;;;;;;5074480;28;20202;-57
2022/02/02 01:53:55;;;;;;;20.20;3.63;;;8.90;99.90;;;;;;5074961;28;20280;-57
2022/02/02 01:56:15;;;;;;;20.93;4.50;;;8.90;99.90;;;;;;5079883;28;20267;-59
2022/02/02 02:01:31;;;;;;;20.67;4.27;;;8.80;99.90;;;;;;5078529;28;20280;-58
2022/02/02 02:03:59;;;;;;;21.00;3.60;;;8.80;99.90;;;;;;5079693;28;20226;-57
2022/02/02 02:06:26;;;;;;;21.47;4.50;;;8.90;99.90;;;;;;5077124;28;20240;-58
2022/02/02 02:08:54;;;;;;;19.13;3.90;;;8.90;99.90;;;;;;5082389;28;20262;-59
2022/02/02 02:11:22;;;;;;;22.70;3.83;;;8.80;99.90;;;;;;5072813;28;20602;-57
2022/02/02 02:16:36;;;;;;;21.70;3.73;;;8.90;99.90;;;;;;5080062;28;20520;-57
2022/02/02 02:19:03;;;;;;;20.23;5.03;;;8.90;99.90;;;;;;5066796;28;20202;-57
2022/02/02 02:21:30;;;;;;;20.10;3.80;;;8.90;99.90;;;;;;5075883;28;20733;-57
2022/02/02 02:23:59;;;;;;;23.90;3.67;;;8.80;99.90;;;;;;5076805;28;20716;-57
2022/02/02 02:26:28;;;;;;;22.53;4.47;;;8.80;99.90;;;;;;5078624;28;20203;-59
2022/02/02 02:29:12;;;;;;;20.37;3.83;;;8.80;99.90;;;;;;5080381;28;20204;-58
2022/02/02 02:32:12;;;;;;;21.00;3.83;;;8.80;99.90;;;;;;5078035;28;20286;-57
2022/02/02 02:35:10;;;;;;;23.63;3.30;;;8.80;99.90;;;;;;5081688;28;20210;-58
2022/02/02 02:56:28;;;;;;;14.50;3.80;;;8.90;99.90;;;;;;5078555;28;20723;-59
2022/02/02 02:59:06;;;;;;;22.50;4.93;;;8.80;99.90;;;;;;5083612;28;20607;-58
2022/02/02 04:06:33;;;;;;;23.37;4.70;;;8.80;99.90;;;;;;5078592;28;20404;-56
2022/02/02 04:09:00;;;;;;;24.33;3.90;;;8.80;99.90;;;;;;5077554;28;20232;-57
2022/02/02 04:11:34;;;;;;;22.73;4.57;;;8.90;99.90;;;;;;5078360;28;20303;-56
2022/02/02 04:55:08;;;;;;;16.43;3.20;;;8.90;99.90;;;;;;5077604;28;20675;-58
2022/02/02 04:58:02;;;;;;;21.83;3.43;;;8.90;99.90;;;;;;5081067;28;20605;-57
2022/02/02 05:48:54;;;;;;;23.70;5.00;;;8.80;99.90;;;;;;5074261;28;20198;-58
2022/02/02 05:53:48;;;;;;;24.10;5.47;;;8.70;99.90;;;;;;5073650;28;20681;-59
2022/02/02 05:56:15;;;;;;;23.80;4.33;;;8.70;99.90;;;;;;5075572;28;20294;-57
2022/02/02 05:58:45;;;;;;;23.63;4.97;;;8.60;99.90;;;;;;5054362;28;20369;-58
2022/02/02 06:01:13;;;;;;;19.50;4.10;;;8.70;99.90;;;;;;5070080;28;20347;-58
2022/02/02 06:03:58;;;;;;;26.67;4.70;;;8.70;99.90;;;;;;5071959;28;20214;-57
2022/02/02 06:06:26;;;;;;;18.53;3.63;;;8.80;99.90;;;;;;5069204;28;20797;-58
2022/02/02 06:08:54;;;;;;;17.33;3.77;;;8.70;99.90;;;;;;5081339;28;20677;-57
2022/02/02 06:11:26;;;;;;;23.33;4.37;;;8.70;99.90;;;;;;5066791;28;20626;-58
2022/02/02 06:13:55;;;;;;;20.00;3.90;;;8.70;99.90;;;;;;5086645;28;20202;-58
2022/02/02 06:16:24;;;;;;;15.03;3.73;;;8.80;99.90;;;;;;5094485;28;20229;-58
2022/02/02 06:18:56;;;;;;;20.00;4.50;;;8.80;99.90;;;;;;5090276;28;20731;-57
2022/02/02 06:21:33;;;;;;;17.13;4.40;;;8.70;99.90;;;;;;5086122;28;20732;-57
2022/02/02 06:24:06;;;;;;;25.33;5.40;;;8.80;99.90;;;;;;5086316;28;20217;-57
2022/02/02 06:26:34;;;;;;;17.83;4.33;;;8.70;99.90;;;;;;5092610;28;20202;-58
2022/02/02 06:29:05;;;;;;;20.13;3.70;;;8.80;99.90;;;;;;5085965;28;20209;-58
2022/02/02 06:31:35;;;;;;;24.40;4.50;;;8.80;99.90;;;;;;5088655;28;20300;-58
2022/02/02 06:34:04;;;;;;;24.77;4.80;;;8.80;99.90;;;;;;5073853;28;20273;-58
2022/02/02 06:36:35;;;;;;;25.50;4.37;;;8.80;99.90;;;;;;5091228;28;20202;-58
2022/02/02 06:39:11;;;;;;;20.93;4.10;;;8.80;99.90;;;;;;5087561;28;20212;-57
2022/02/02 06:41:38;;;;;;;21.67;4.33;;;8.70;99.90;;;;;;5076910;28;20731;-57
2022/02/02 06:44:06;;;;;;;28.93;4.60;;;8.70;99.90;;;;;;5085229;28;20252;-57
2022/02/02 06:46:37;;;;;;;17.13;3.90;;;8.70;99.90;;;;;;5073322;28;20226;-57
2022/02/02 06:49:04;;;;;;;22.80;4.37;;;8.80;99.90;;;;;;5066203;28;20854;-58
2022/02/02 06:51:37;;;;;;;17.27;4.20;;;8.80;99.90;;;;;;5083921;28;20206;-58
2022/02/02 06:54:20;;;;;;;21.70;3.83;;;8.80;99.90;;;;;;5086478;28;20202;-59
2022/02/02 06:57:05;;;;;;;23.53;4.50;;;8.70;99.90;;;;;;5070581;28;20202;-59
2022/02/02 07:00:03;;;;;;;22.70;4.10;;;8.70;99.90;;;;;;5080207;28;20535;-58
2022/02/02 07:05:30;;;;;;;26.27;6.00;;;8.70;99.90;;;;;;5083754;28;20249;-58
2022/02/02 07:13:44;;;;;;;23.03;4.27;;;8.70;99.90;;;;;;5060914;28;20274;-57
2022/02/02 07:16:26;;;;;;;26.00;5.10;;;8.60;99.90;;;;;;5065240;28;20279;-58
2022/02/02 07:29:19;;;;;;;17.00;3.83;;;8.60;99.90;;;;;;5061559;28;20307;-57
2022/02/02 07:32:12;;;;;;;17.17;3.67;;;8.60;99.90;;;;;;5061176;28;20202;-58
2022/02/02 07:35:14;;;;;;;29.57;3.77;;;8.70;99.90;;;;;;5045455;28;20324;-58
2022/02/02 07:37:58;;;;;;;25.23;4.63;;;8.70;99.90;;;;;;5056023;28;20260;-58
2022/02/02 07:40:26;;;;;;;24.27;4.57;;;8.60;99.90;;;;;;5061810;28;20700;-57
2022/02/02 07:42:56;;;;;;;24.27;4.50;;;8.60;99.90;;;;;;5069578;28;20219;-57
2022/02/02 07:45:25;;;;;;;18.07;4.17;;;8.50;99.90;;;;;;5067751;28;20203;-58
2022/02/02 07:48:00;;;;;;;20.07;3.97;;;8.50;99.90;;;;;;5066761;28;20234;-62
2022/02/02 07:50:32;;;;;;;19.53;3.70;;;8.40;99.90;;;;;;5066652;28;20193;-57
2022/02/02 07:53:05;;;;;;;25.10;3.60;;;8.40;99.90;;;;;;5065743;28;20259;-57
2022/02/02 07:55:34;;;;;;;22.43;3.80;;;8.40;99.90;;;;;;5065991;28;20210;-58
2022/02/02 07:58:02;;;;;;;20.50;3.70;;;8.50;99.90;;;;;;5069363;28;20202;-59
2022/02/02 08:00:31;;;;;;;14.73;3.70;;;8.40;99.90;;;;;;5065826;28;20204;-58
2022/02/02 08:05:30;;;;;;;31.33;4.30;;;8.50;99.90;;;;;;5068182;28;20338;-59
2022/02/02 08:08:10;;;;;;;16.93;4.00;;;8.70;99.90;;;;;;5078786;28;20308;-58
2022/02/02 08:10:39;;;;;;;25.40;4.07;;;8.70;99.90;;;;;;5082185;28;20257;-58
2022/02/02 08:13:18;;;;;;;25.53;4.37;;;8.50;99.90;;;;;;5083626;28;20252;-56
2022/02/02 08:15:50;;;;;;;17.83;3.37;;;8.60;99.90;;;;;;5083493;28;20248;-58
2022/02/02 08:18:17;;;;;;;23.23;3.53;;;8.60;99.90;;;;;;5086059;28;20195;-58
2022/02/02 08:20:44;;;;;;;17.33;3.77;;;8.50;99.90;;;;;;5062485;28;20209;-57
2022/02/02 08:23:10;;;;;;;19.60;3.87;;;8.50;99.90;;;;;;5070079;28;20718;-58
2022/02/02 08:25:39;;;;;;;21.03;4.03;;;8.60;99.90;;;;;;5083905;28;20199;-58
2022/02/02 08:28:06;;;;;;;14.33;3.40;;;8.70;99.90;;;;;;5086595;28;20218;-59
2022/02/02 08:30:33;;;;;;;26.30;4.23;;;8.70;99.90;;;;;;5082251;28;20194;-58
2022/02/02 08:33:02;;;;;;;17.10;4.30;;;8.60;99.90;;;;;;5085204;28;20203;-58
2022/02/02 08:35:31;;;;;;;23.40;4.50;;;8.60;99.90;;;;;;5083180;28;20209;-59
2022/02/02 08:38:12;;;;;;;18.27;4.60;;;8.70;99.90;;;;;;5082380;28;20284;-58
2022/02/02 08:40:47;;;;;;;16.07;3.27;;;8.80;99.90;;;;;;5083021;28;20428;-59
2022/02/02 08:43:23;;;;;;;22.87;3.90;;;8.90;99.90;;;;;;5079209;28;20238;-57
2022/02/02 08:45:54;;;;;;;19.77;3.27;;;9.00;99.90;;;;;;5081203;28;20198;-57
2022/02/02 08:48:25;;;;;;;14.63;3.67;;;9.10;99.90;;;;;;5080858;28;20258;-58
2022/02/02 08:51:14;;;;;;;18.38;4.63;;;9.20;99.90;;;;;;5077446;28;20484;-56
2022/02/02 09:01:39;;;;;;;21.13;6.35;;;9.30;99.90;;;;;;5073777;28;20929;-58
2022/02/02 09:06:51;;;;;;;18.63;4.50;;;9.40;99.90;;;;;;5073286;28;20554;-54
2022/02/02 09:09:22;;;;;;;16.00;4.87;;;9.50;99.90;;;;;;5061944;28;20498;-54
2022/02/02 09:26:26;;;;;;;17.47;3.87;;;9.50;99.90;;;;;;5076410;28;20566;-54
2022/02/02 09:34:01;;;;;;;20.47;4.03;;;10.80;99.90;;;;;;5076375;28;20223;-55
2022/02/02 09:36:30;;;;;;;18.07;3.50;;;10.70;99.90;;;;;;5074301;28;20211;-56
2022/02/02 09:39:04;;;;;;;15.97;3.87;;;10.50;99.90;;;;;;5076186;28;20313;-55
2022/02/02 09:41:40;;;;;;;13.90;3.57;;;10.60;99.90;;;;;;5075351;28;20258;-56
2022/02/02 09:44:11;;;;;;;17.83;3.53;;;10.80;99.90;;;;;;5050896;28;20210;-55
2022/02/02 09:49:13;;;;;;;13.50;3.70;;;10.60;99.90;;;;;;5075049;28;20296;-55
2022/02/02 09:51:49;;;;;;;9.20;2.67;;;10.60;99.90;;;;;;5081915;28;20300;-56
2022/02/02 09:54:25;;;;;;;20.23;4.10;;;10.60;99.90;;;;;;5070795;28;20335;-56
2022/02/02 09:59:56;;;;;;;14.90;3.17;;;10.30;99.90;;;;;;5075935;28;20294;-54
2022/02/02 10:02:31;;;;;;;19.60;3.43;;;10.40;99.90;;;;;;5073724;28;20200;-55
2022/02/02 10:15:57;;;;;;;12.03;3.33;;;10.10;99.90;;;;;;5075608;28;20700;-55
2022/02/02 10:18:32;;;;;;;17.43;3.97;;;10.10;99.90;;;;;;5079915;28;20208;-55
2022/02/02 10:20:59;;;;;;;11.70;3.07;;;10.20;99.90;;;;;;5079270;28;21526;-56
2022/02/02 10:23:34;;;;;;;15.37;3.90;;;10.30;99.90;;;;;;5078610;28;20456;-59
2022/02/02 10:26:18;;;;;;;16.43;3.57;;;10.10;99.90;;;;;;5080237;28;20454;-58
2022/02/02 10:28:46;;;;;;;12.00;3.20;;;10.20;99.90;;;;;;5075403;28;20753;-58
2022/02/02 10:31:13;;;;;;;12.57;4.17;;;10.30;99.90;;;;;;5076767;28;20202;-58
2022/02/02 10:33:41;;;;;;;11.80;3.17;;;10.30;99.90;;;;;;5075576;28;20264;-57
2022/02/02 10:36:22;;;;;;;14.13;4.07;;;10.30;99.90;;;;;;5076117;28;20267;-57
2022/02/02 10:39:07;;;;;;;16.27;3.70;;;10.40;99.90;;;;;;5078592;28;20199;-58
2022/02/02 10:41:58;;;;;;;17.10;3.40;;;10.40;99.90;;;;;;5075108;28;20207;-57
2022/02/02 10:44:38;;;;;;;15.33;4.53;;;10.50;99.90;;;;;;5074047;28;20210;-57
2022/02/02 10:47:23;;;;;;;19.27;3.57;;;10.40;99.90;;;;;;5079331;28;20559;-58
2022/02/02 10:50:10;;;;;;;12.80;3.23;;;10.40;99.90;;;;;;5076062;28;20260;-57
2022/02/02 10:52:44;;;;;;;17.00;3.67;;;10.50;99.90;;;;;;5082455;28;20727;-57
2022/02/02 10:55:51;;;;;;;17.33;4.00;;;10.50;99.90;;;;;;5074668;28;20230;-56
2022/02/02 11:08:51;;;;;;;13.33;3.47;;;10.70;99.90;;;;;;5078050;28;20288;-57
2022/02/02 11:11:18;;;;;;;15.30;3.30;;;10.70;99.90;;;;;;5080661;28;20269;-57
2022/02/02 11:13:49;;;;;;;16.30;3.40;;;10.90;99.90;;;;;;5077635;28;20604;-57
2022/02/02 11:16:24;;;;;;;23.23;4.37;;;11.00;99.90;;;;;;5072261;28;20662;-57
2022/02/02 11:18:53;;;;;;;14.10;3.27;;;11.40;99.90;;;;;;5079878;28;20238;-57
2022/02/02 11:21:31;;;;;;;17.57;3.93;;;11.90;99.90;;;;;;5073130;28;20306;-57
2022/02/02 11:23:59;;;;;;;14.87;3.93;;;11.90;99.90;;;;;;5055930;28;20304;-57
2022/02/02 11:26:43;;;;;;;18.07;3.50;;;12.10;99.90;;;;;;5074789;28;20230;-57
2022/02/02 11:29:41;;;;;;;8.63;3.63;;;12.20;99.90;;;;;;5059897;28;20186;-56
2022/02/02 11:32:11;;;;;;;19.43;3.93;;;12.20;99.90;;;;;;5080557;28;20198;-58
2022/02/02 11:34:40;;;;;;;18.47;3.90;;;12.40;99.90;;;;;;5080878;28;20226;-57
2022/02/02 11:37:09;;;;;;;20.83;4.03;;;12.40;99.90;;;;;;5072066;28;20220;-57
2022/02/02 11:39:57;;;;;;;15.07;3.53;;;11.90;99.90;;;;;;5077242;28;20301;-57
2022/02/02 11:42:58;;;;;;;19.57;3.93;;;11.90;99.90;;;;;;5072295;28;20238;-58
2022/02/02 11:45:45;;;;;;;12.07;3.83;;;12.10;99.90;;;;;;5058600;28;20317;-57
2022/02/02 11:48:44;;;;;;;15.67;4.30;;;12.00;99.90;;;;;;5076672;28;20227;-57
2022/02/02 11:51:40;;;;;;;13.87;4.23;;;11.80;99.90;;;;;;5074732;28;20211;-58
2022/02/02 11:54:08;;;;;;;13.50;4.27;;;11.70;99.90;;;;;;5047602;28;20591;-59
2022/02/02 11:57:17;;;;;;;15.73;4.07;;;11.70;99.90;;;;;;5070275;28;20203;-58
2022/02/02 12:00:32;;;;;;;17.97;3.63;;;11.40;99.90;;;;;;5064817;28;20205;-59
2022/02/02 12:08:49;;;;;;;14.30;3.90;;;11.70;99.90;;;;;;5068978;28;20234;-59
2022/02/02 12:11:45;;;;;;;15.23;4.13;;;11.60;99.90;;;;;;5071924;28;20206;-59
2022/02/02 12:45:06;;;;;;;12.17;2.70;;;11.60;99.90;;;;;;5081622;28;20654;-58
2022/02/02 12:47:54;;;;;;;11.67;2.47;;;11.40;99.90;;;;;;5046347;28;20191;-59
2022/02/02 12:58:35;;;;;;;14.70;3.33;;;12.10;99.90;;;;;;5079526;28;20241;-58
2022/02/02 13:01:13;;;;;;;8.43;2.90;;;12.10;99.90;;;;;;5078890;28;20203;-57
2022/02/02 13:03:42;;;;;;;16.43;3.17;;;12.60;99.90;;;;;;5084262;28;20685;-57
2022/02/02 13:06:21;;;;;;;14.27;3.33;;;12.60;99.90;;;;;;5079981;28;20695;-59
2022/02/02 13:08:49;;;;;;;11.00;2.63;;;12.40;99.90;;;;;;5069277;28;20266;-58
2022/02/02 13:11:31;;;;;;;12.67;2.63;;;12.00;99.90;;;;;;5075910;28;20242;-59
2022/02/02 13:14:04;;;;;;;8.57;2.63;;;11.60;99.90;;;;;;5080609;28;20277;-57
2022/02/02 13:16:32;;;;;;;11.53;2.70;;;12.00;99.90;;;;;;5069892;28;20226;-57
2022/02/02 13:19:18;;;;;;;12.57;2.77;;;11.70;99.90;;;;;;5074752;28;20305;-57
2022/02/02 13:21:52;;;;;;;13.10;2.83;;;11.70;99.90;;;;;;5072851;28;20223;-58
2022/02/02 13:24:24;;;;;;;13.07;3.70;;;11.90;99.90;;;;;;5067840;28;20965;-57
2022/02/02 13:27:05;;;;;;;14.10;2.73;;;12.30;99.90;;;;;;5074503;28;20253;-58
2022/02/02 13:29:43;;;;;;;11.57;2.97;;;12.20;99.90;;;;;;5058586;28;20203;-58
2022/02/02 13:32:24;;;;;;;14.80;2.90;;;12.60;99.90;;;;;;5062387;28;20342;-58
2022/02/02 14:09:33;;;;;;;15.10;3.03;;;12.20;99.90;;;;;;5064548;28;20295;-55
2022/02/02 14:31:08;;;;;;;17.73;4.07;;;12.00;99.90;;;;;;5074395;28;20203;-55
2022/02/02 14:33:55;;;;;;;10.13;2.60;;;12.00;99.90;;;;;;5074809;28;20290;-55
2022/02/02 14:36:27;;;;;;;14.13;3.10;;;12.20;99.90;;;;;;5076326;28;20685;-54
2022/02/02 14:41:38;;;;;;;13.17;3.00;;;12.40;99.90;;;;;;5072308;28;20218;-56
2022/02/02 14:49:53;;;;;;;14.13;3.80;;;11.80;99.90;;;;;;5012630;28;20317;-53
2022/02/02 15:27:59;;;;;;;10.73;4.27;;;10.60;99.90;;;;;;5076666;28;20206;-53
2022/02/02 15:33:03;;;;;;;10.20;3.90;;;10.50;99.90;;;;;;5074442;28;21038;-54
2022/02/02 15:35:32;;;;;;;11.73;4.80;;;10.50;99.90;;;;;;5078682;28;20198;-54
2022/02/02 15:38:05;;;;;;;10.03;3.80;;;10.50;99.90;;;;;;5083852;28;20194;-54
2022/02/02 15:40:37;;;;;;;10.57;4.60;;;10.60;99.90;;;;;;5063503;28;20202;-55
2022/02/02 15:43:56;;;;;;;14.87;4.47;;;10.50;99.90;;;;;;5062147;28;20241;-54
2022/02/02 16:04:33;;;;;;;9.63;3.77;;;10.50;99.90;;;;;;5080799;28;20265;-55
2022/02/02 16:07:04;;;;;;;8.67;3.33;;;10.30;99.90;;;;;;5078577;28;20270;-55
2022/02/02 16:09:42;;;;;;;8.73;4.40;;;10.20;99.90;;;;;;5080913;28;20851;-55
2022/02/02 16:12:17;;;;;;;14.07;4.20;;;10.20;99.90;;;;;;5081001;28;20203;-54
2022/02/02 16:14:49;;;;;;;12.13;3.53;;;10.10;99.90;;;;;;5061791;28;20234;-56
2022/02/02 16:38:39;;;;;;;7.07;3.30;;;10.50;99.90;;;;;;5086047;28;20245;-53
2022/02/02 16:42:56;;;;;;;8.80;2.77;;;10.40;99.90;;;;;;5068299;28;20267;-54
2022/02/02 16:43:53;;;;;;;5.67;3.13;;;10.50;99.90;;;;;;5084841;28;20206;-55
2022/02/02 16:46:20;;;;;;;12.80;3.47;;;10.50;99.90;;;;;;5085653;28;20225;-57
2022/02/02 16:48:47;;;;;;;7.80;3.30;;;10.50;99.90;;;;;;5086119;28;20229;-54
2022/02/02 16:51:14;;;;;;;10.17;3.20;;;10.60;99.90;;;;;;5079367;28;20242;-55
2022/02/02 16:53:57;;;;;;;7.22;3.30;;;10.40;99.90;;;;;;4791633;28;10001164;-55
2022/02/02 17:35:21;;;;;;;8.77;3.43;;;9.80;99.90;;;;;;5076084;28;20201;-58
2022/02/02 17:57:34;;;;;;;7.47;3.03;;;9.80;99.90;;;;;;5077292;28;20218;-57
2022/02/02 18:12:29;;;;;;;11.00;3.37;;;9.40;99.90;;;;;;5081539;28;20206;-55
2022/02/02 18:20:45;;;;;;;6.93;2.57;;;9.60;99.90;;;;;;5078824;28;20199;-55
2022/02/02 18:23:15;;;;;;;4.77;3.10;;;9.60;99.90;;;;;;5069728;28;20236;-55
2022/02/02 18:25:56;;;;;;;6.63;2.90;;;9.70;99.90;;;;;;5075090;28;20306;-58
2022/02/02 19:07:24;;;;;;;6.80;3.57;;;9.70;99.90;;;;;;5076053;28;20680;-55
2022/02/02 19:52:20;;;;;;;12.03;7.47;;;9.70;99.90;;;;;;5079744;28;20207;-58
2022/02/02 20:07:44;;;;;;;20.90;11.90;;;9.80;99.90;;;;;;5076920;28;20222;-57
2022/02/02 20:12:48;;;;;;;19.93;12.63;;;9.60;99.90;;;;;;5074782;28;20269;-57
2022/02/02 20:15:15;;;;;;;22.20;13.10;;;9.70;99.90;;;;;;5072629;28;20198;-56
2022/02/02 20:17:44;;;;;;;22.13;14.13;;;9.60;99.90;;;;;;5073242;28;20212;-55
2022/02/02 20:20:19;;;;;;;21.70;13.63;;;9.60;99.90;;;;;;5079144;28;20212;-55
2022/02/02 20:22:47;;;;;;;21.60;13.10;;;9.70;99.90;;;;;;5057134;28;20676;-58
2022/02/02 20:25:16;;;;;;;19.47;12.50;;;9.50;99.90;;;;;;5072242;28;20207;-59
2022/02/02 20:27:51;;;;;;;22.50;13.87;;;9.60;99.90;;;;;;5072311;28;20304;-56
2022/02/02 20:30:18;;;;;;;21.70;14.03;;;9.50;99.90;;;;;;5063555;28;20710;-57
2022/02/02 20:32:46;;;;;;;26.23;14.50;;;9.60;99.90;;;;;;5072711;28;20309;-56
2022/02/02 20:35:13;;;;;;;25.27;15.23;;;9.50;99.90;;;;;;5057769;28;20214;-56
2022/02/02 20:37:39;;;;;;;23.63;14.37;;;9.50;99.90;;;;;;5077178;28;20210;-57
2022/02/02 20:40:08;;;;;;;27.33;15.13;;;9.60;99.90;;;;;;5075320;28;20349;-55
2022/02/02 20:43:27;;;;;;;27.03;15.87;;;9.50;99.90;;;;;;5075256;28;20238;-55
2022/02/02 21:14:42;;;;;;;22.27;14.83;;;9.40;99.90;;;;;;5078796;28;20676;-57
2022/02/02 21:17:20;;;;;;;20.77;13.87;;;9.30;99.90;;;;;;5083000;28;20653;-55
2022/02/02 21:22:27;;;;;;;23.77;13.37;;;9.20;99.90;;;;;;5078396;28;20202;-54
2022/02/02 21:25:08;;;;;;;22.47;13.70;;;9.20;99.90;;;;;;5081046;28;20259;-55
2022/02/02 21:27:40;;;;;;;22.93;13.20;;;9.30;99.90;;;;;;5080802;28;20217;-56
2022/02/02 21:30:10;;;;;;;20.20;13.07;;;9.40;99.90;;;;;;5079861;28;20651;-55
2022/02/02 21:32:37;;;;;;;20.63;12.43;;;9.40;99.90;;;;;;5064448;28;20619;-55
2022/02/02 21:35:07;;;;;;;16.70;12.80;;;9.40;99.90;;;;;;5079033;28;20260;-55
2022/02/02 21:37:36;;;;;;;19.57;12.60;;;9.40;99.90;;;;;;5079108;28;20210;-55
2022/02/02 21:40:20;;;;;;;20.63;12.60;;;9.40;99.90;;;;;;5080818;28;20200;-56
2022/02/02 21:42:48;;;;;;;20.13;12.87;;;9.30;99.90;;;;;;5079270;28;20296;-56
2022/02/02 21:45:21;;;;;;;19.40;13.40;;;9.20;99.90;;;;;;5079047;28;20199;-56
2022/02/02 21:47:48;;;;;;;23.30;12.63;;;9.20;99.90;;;;;;5080590;28;20272;-55
2022/02/02 21:50:18;;;;;;;19.43;13.77;;;9.20;99.90;;;;;;5081426;28;20253;-56
2022/02/02 21:52:47;;;;;;;20.13;12.90;;;9.20;99.90;;;;;;5081405;28;20437;-56
2022/02/02 21:55:15;;;;;;;19.53;13.20;;;9.20;99.90;;;;;;5078160;28;20215;-58
2022/02/02 21:57:44;;;;;;;19.33;13.97;;;9.20;99.90;;;;;;5059836;28;20210;-56
2022/02/02 22:00:13;;;;;;;19.00;14.17;;;9.20;99.90;;;;;;5077116;28;20210;-56
2022/02/02 22:02:41;;;;;;;19.80;14.17;;;9.20;99.90;;;;;;5079128;28;20286;-56
2022/02/02 22:05:09;;;;;;;22.40;15.37;;;9.30;99.90;;;;;;5078614;28;20207;-56
2022/02/02 22:07:36;;;;;;;20.20;13.73;;;9.20;99.90;;;;;;5077043;28;20242;-58
2022/02/02 22:10:06;;;;;;;22.90;14.90;;;9.20;99.90;;;;;;5079290;28;20232;-55
2022/02/02 22:12:37;;;;;;;20.67;14.20;;;9.20;99.90;;;;;;5083198;28;20275;-57
2022/02/02 22:15:15;;;;;;;18.77;13.63;;;9.20;99.90;;;;;;5077810;28;20290;-55
2022/02/02 22:17:45;;;;;;;19.00;12.83;;;9.20;99.90;;;;;;5081472;28;20206;-57
2022/02/02 22:20:14;;;;;;;18.93;13.93;;;9.20;99.90;;;;;;5080357;28;20627;-56
2022/02/02 22:22:43;;;;;;;19.53;14.23;;;9.20;99.90;;;;;;5080257;28;20202;-56
2022/02/02 22:25:11;;;;;;;19.03;13.77;;;9.20;99.90;;;;;;5077777;28;20634;-56
2022/02/02 22:27:40;;;;;;;19.90;13.43;;;9.20;99.90;;;;;;5081923;28;20355;-55
2022/02/02 22:30:08;;;;;;;21.53;14.00;;;9.30;99.90;;;;;;5080931;28;21167;-55
2022/02/02 22:32:35;;;;;;;22.43;13.67;;;9.30;99.90;;;;;;5066135;28;20210;-56
2022/02/02 22:35:03;;;;;;;20.00;13.90;;;9.30;99.90;;;;;;5078812;28;20211;-58
2022/02/02 22:37:30;;;;;;;21.20;15.53;;;9.30;99.90;;;;;;5079895;28;20304;-55
2022/02/02 22:39:58;;;;;;;21.10;14.60;;;9.30;99.90;;;;;;5072270;28;20606;-56
2022/02/02 22:42:27;;;;;;;21.80;14.87;;;9.30;99.90;;;;;;5075143;28;20634;-56
2022/02/02 22:44:58;;;;;;;20.07;13.57;;;9.20;99.90;;;;;;5083702;28;20676;-55
2022/02/02 22:47:28;;;;;;;19.17;14.30;;;9.20;99.90;;;;;;5079331;28;20258;-58
2022/02/02 22:49:56;;;;;;;21.40;14.40;;;9.20;99.90;;;;;;5080973;28;20228;-56
2022/02/02 22:52:23;;;;;;;24.80;15.47;;;9.20;99.90;;;;;;5081805;28;20198;-55
2022/02/02 22:54:50;;;;;;;23.43;15.27;;;9.20;99.90;;;;;;5079639;28;20209;-55
2022/02/02 22:57:17;;;;;;;25.83;16.50;;;9.20;99.90;;;;;;5082013;28;20208;-55
2022/02/02 22:59:47;;;;;;;24.83;16.23;;;9.20;99.90;;;;;;5077919;28;20227;-57
2022/02/02 23:05:00;;;;;;;26.83;15.20;;;9.20;99.90;;;;;;5084681;28;20202;-54
2022/02/02 23:07:27;;;;;;;23.63;16.37;;;9.20;99.90;;;;;;5083176;28;20682;-56
2022/02/02 23:09:54;;;;;;;27.07;16.97;;;9.20;99.90;;;;;;5081148;28;20229;-54
2022/02/02 23:12:23;;;;;;;24.47;15.97;;;9.20;99.90;;;;;;5084173;28;20259;-55
2022/02/02 23:14:50;;;;;;;29.30;16.33;;;9.20;99.90;;;;;;5068215;28;20309;-59
2022/02/02 23:17:19;;;;;;;22.53;16.53;;;9.20;99.90;;;;;;5084190;28;20353;-56
2022/02/02 23:19:49;;;;;;;22.50;15.83;;;9.20;99.90;;;;;;5083916;28;20291;-56
2022/02/02 23:22:19;;;;;;;24.63;16.50;;;9.20;99.90;;;;;;5084823;28;20206;-58
2022/02/02 23:24:49;;;;;;;28.00;17.43;;;9.20;99.90;;;;;;5086002;28;20210;-56
2022/02/02 23:27:18;;;;;;;27.33;17.60;;;9.30;99.90;;;;;;5084883;28;20915;-57
2022/02/02 23:29:53;;;;;;;24.57;18.53;;;9.20;99.90;;;;;;5084605;28;20225;-55
2022/02/02 23:32:22;;;;;;;26.57;17.80;;;9.30;99.90;;;;;;5085376;28;20201;-57
2022/02/02 23:34:49;;;;;;;25.40;17.83;;;9.30;99.90;;;;;;5086375;28;20892;-56
2022/02/02 23:37:16;;;;;;;26.40;18.10;;;9.30;99.90;;;;;;5085023;28;20210;-56
2022/02/02 23:39:44;;;;;;;27.37;17.53;;;9.20;99.90;;;;;;5082662;28;20736;-57
2022/02/02 23:42:20;;;;;;;25.87;18.87;;;9.30;99.90;;;;;;5081790;28;20198;-58
2022/02/02 23:44:48;;;;;;;30.63;18.53;;;9.30;99.90;;;;;;5079045;28;20251;-57
2022/02/02 23:47:18;;;;;;;29.40;19.13;;;9.30;99.90;;;;;;5069263;28;20218;-55
2022/02/02 23:49:52;;;;;;;28.07;19.67;;;9.30;99.90;;;;;;5079701;28;20204;-57
2022/02/02 23:52:34;;;;;;;28.77;19.40;;;9.30;99.90;;;;;;5082467;28;20664;-55
2022/02/02 23:55:05;;;;;;;29.27;19.33;;;9.30;99.90;;;;;;5083220;28;20205;-56
